Bigfork, MN

3:56 AM CDT on October 02, 2014 (GMT -0500)
Waskish Municipal | Change Station
CLOSE
Current Station
Airport
Location: Waskish,
Elevation: 1181 ft
Nearby Weather Stations

Elev 1181 ft 48.15 °N, 94.52 °W | Updated 20 minutes ago

Mostly Cloudy
Mostly Cloudy
54 °F
Feels Like 54 °F
N
0
Wind Variable Wind from North

Today
High -- | Low -- °F
--% Chance of Precip.
Yesterday
High -- | Low -- °F
Precip. -- in
7:15 AM 6:52 PM
First Quarter, 56% visible
Pressure 29.78 in
Visibility 10.0 miles
Clouds Scattered Clouds 3400 ft
Overcast 6500 ft
Dew Point 52 °F
Humidity 94%
Rainfall 0.00 in
Snow Depth Not available.
UV 0 out of 12
Pollen 2.60 out of 12
Air Quality Not available.
Flu Activity Not available.
METAR KVWU 020836Z AUTO 00000KT 10SM SCT034 OVC065 12/11 A2978 RMK AO2

More Conditions Fewer Conditions

Pressure 29.78 in
Visibility 10.0 miles
Clouds Scattered Clouds 3400 ft
Overcast 6500 ft
Dew Point 52 °F
Humidity 94%
Rainfall 0.00 in
Snow Depth Not available.
UV 0 out of 12
Pollen 2.60 out of 12
Air Quality Not available.
Flu Activity Not available.
METAR KVWU 020836Z AUTO 00000KT 10SM SCT034 OVC065 12/11 A2978 RMK AO2

More Conditions Fewer Conditions

10-Day Weather Forecast

Almanac

Astronomy

Oct. 02, 2014 Rise Set
Actual Time 7:15 AM CDT 6:52 PM CDT
Civil Twilight 6:44 AM CDT 7:22 PM CDT
Nautical Twilight 6:08 AM CDT 7:58 PM CDT
Astronomical Twilight 5:32 AM CDT 8:34 PM CDT
Moon 3:21 PM CDT 12:08 AM CDT
Length of Visible Light 12h 38m
Length of Day
11h 36m
Tomorrow will be 3m 24s shorter.
First Quarter, 56% of the Moon is Illuminated
Today
First Quarter
Oct 8
Full
Oct 15
Last Quarter
Oct 23
New
Oct 30
First Quarter

Today's Extremes

State Highs State Lows

Community

WunderPhotos

Upload Photos

1,758,196 photos uploaded!

WunderBlogs® & News

By Dr. Jeff Masters
Director of Meteorology, Weather Underground
By Kari Strenfel
Meteorologist, Weather Underground
By Christopher C. Burt
Weather Historian, Weather Underground
October 2, 2014
October 2, 2014
October 2, 2014

Nearby

Snow Depth

Station Depth Elevation
No new snow has been reported.

Earthquake Activity

City Distance Mag. Time & Date
No recent earthquake activity has been reported nearby.
Minimum magnitude displayed is 2.5.

Coastal Water Temperatures

Place Temperature
No Stations Reporting

Nearby Weather Stations